sensor_id;sensor_type;location;lat;lon;timestamp;pressure;altitude;pressure_sealevel;temperature;humidity
55022;BME280;68328;35.990;-86.756;2024-03-17T00:02:18;98581.36;;;24.87;24.25
55022;BME280;68328;35.990;-86.756;2024-03-17T00:04:43;98579.85;;;24.97;23.60
55022;BME280;68328;35.990;-86.756;2024-03-17T00:07:08;98582.79;;;24.87;24.37
55022;BME280;68328;35.990;-86.756;2024-03-17T00:09:33;98584.64;;;24.50;25.26
55022;BME280;68328;35.990;-86.756;2024-03-17T00:11:58;98586.48;;;24.37;24.48
55022;BME280;68328;35.990;-86.756;2024-03-17T00:14:24;98586.60;;;24.49;25.33
55022;BME280;68328;35.990;-86.756;2024-03-17T00:16:50;98587.56;;;24.61;25.39
55022;BME280;68328;35.990;-86.756;2024-03-17T00:19:14;98586.89;;;24.28;25.21
55022;BME280;68328;35.990;-86.756;2024-03-17T00:21:40;98586.71;;;24.38;25.89
55022;BME280;68328;35.990;-86.756;2024-03-17T00:24:06;98584.50;;;24.18;25.70
55022;BME280;68328;35.990;-86.756;2024-03-17T00:26:31;98579.13;;;23.90;23.78
55022;BME280;68328;35.990;-86.756;2024-03-17T00:28:55;98578.30;;;23.71;24.40
55022;BME280;68328;35.990;-86.756;2024-03-17T00:31:20;98574.32;;;23.60;25.05
55022;BME280;68328;35.990;-86.756;2024-03-17T00:33:46;98578.08;;;23.41;25.99
55022;BME280;68328;35.990;-86.756;2024-03-17T00:36:11;98577.39;;;23.74;26.64
55022;BME280;68328;35.990;-86.756;2024-03-17T00:38:36;98577.08;;;23.56;25.15
55022;BME280;68328;35.990;-86.756;2024-03-17T00:41:03;98575.15;;;23.47;24.99
55022;BME280;68328;35.990;-86.756;2024-03-17T00:43:27;98579.60;;;22.91;25.75
55022;BME280;68328;35.990;-86.756;2024-03-17T00:45:52;98583.45;;;23.36;26.59
55022;BME280;68328;35.990;-86.756;2024-03-17T00:48:18;98586.73;;;23.21;26.90
55022;BME280;68328;35.990;-86.756;2024-03-17T00:50:42;98587.77;;;23.05;26.70
55022;BME280;68328;35.990;-86.756;2024-03-17T00:53:08;98586.00;;;23.19;27.09
55022;BME280;68328;35.990;-86.756;2024-03-17T00:55:35;98582.71;;;23.07;27.27
55022;BME280;68328;35.990;-86.756;2024-03-17T00:57:58;98579.66;;;23.04;27.31
55022;BME280;68328;35.990;-86.756;2024-03-17T01:00:23;98583.70;;;23.00;27.19
55022;BME280;68328;35.990;-86.756;2024-03-17T01:02:48;98592.01;;;22.57;27.12
55022;BME280;68328;35.990;-86.756;2024-03-17T01:05:14;98597.45;;;22.38;26.48
55022;BME280;68328;35.990;-86.756;2024-03-17T01:07:40;98603.21;;;22.31;27.32
55022;BME280;68328;35.990;-86.756;2024-03-17T01:10:05;98604.30;;;22.26;27.24
55022;BME280;68328;35.990;-86.756;2024-03-17T01:12:30;98611.90;;;22.65;27.49
55022;BME280;68328;35.990;-86.756;2024-03-17T01:14:57;98611.29;;;22.57;27.62
55022;BME280;68328;35.990;-86.756;2024-03-17T01:17:21;98610.92;;;22.52;27.53
55022;BME280;68328;35.990;-86.756;2024-03-17T01:19:46;98614.11;;;22.38;27.38
55022;BME280;68328;35.990;-86.756;2024-03-17T01:22:12;98618.91;;;22.02;26.89
55022;BME280;68328;35.990;-86.756;2024-03-17T01:24:37;98628.18;;;21.98;27.17
55022;BME280;68328;35.990;-86.756;2024-03-17T01:27:04;98633.03;;;22.12;26.62
55022;BME280;68328;35.990;-86.756;2024-03-17T01:29:28;98632.14;;;22.03;26.23
55022;BME280;68328;35.990;-86.756;2024-03-17T01:31:52;98636.91;;;22.04;26.39
55022;BME280;68328;35.990;-86.756;2024-03-17T01:34:19;98641.47;;;21.80;26.63
55022;BME280;68328;35.990;-86.756;2024-03-17T01:36:43;98647.73;;;22.01;26.98
55022;BME280;68328;35.990;-86.756;2024-03-17T01:39:08;98655.38;;;22.40;27.23
55022;BME280;68328;35.990;-86.756;2024-03-17T01:41:33;98647.19;;;22.06;27.87
55022;BME280;68328;35.990;-86.756;2024-03-17T01:43:59;98644.46;;;21.76;28.14
55022;BME280;68328;35.990;-86.756;2024-03-17T01:46:25;98641.00;;;21.71;28.30
55022;BME280;68328;35.990;-86.756;2024-03-17T01:48:49;98641.88;;;21.62;28.01
55022;BME280;68328;35.990;-86.756;2024-03-17T01:51:15;98639.85;;;21.47;28.95
55022;BME280;68328;35.990;-86.756;2024-03-17T01:53:40;98638.63;;;21.59;28.92
55022;BME280;68328;35.990;-86.756;2024-03-17T01:56:08;98635.17;;;21.29;29.14
55022;BME280;68328;35.990;-86.756;2024-03-17T01:58:31;98636.90;;;21.17;29.08
55022;BME280;68328;35.990;-86.756;2024-03-17T02:00:56;98643.41;;;21.54;29.08
55022;BME280;68328;35.990;-86.756;2024-03-17T02:03:22;98639.14;;;21.23;29.18
55022;BME280;68328;35.990;-86.756;2024-03-17T02:05:46;98632.21;;;21.39;29.50
55022;BME280;68328;35.990;-86.756;2024-03-17T02:08:11;98634.55;;;21.36;29.59
55022;BME280;68328;35.990;-86.756;2024-03-17T02:10:37;98634.27;;;21.36;29.72
55022;BME280;68328;35.990;-86.756;2024-03-17T02:13:02;98633.33;;;21.13;29.56
55022;BME280;68328;35.990;-86.756;2024-03-17T02:15:27;98639.21;;;21.33;29.13
55022;BME280;68328;35.990;-86.756;2024-03-17T02:17:53;98637.01;;;21.00;29.22
55022;BME280;68328;35.990;-86.756;2024-03-17T02:20:18;98636.68;;;20.97;29.29
55022;BME280;68328;35.990;-86.756;2024-03-17T02:22:44;98632.43;;;21.19;29.43
55022;BME280;68328;35.990;-86.756;2024-03-17T02:25:09;98629.94;;;21.24;29.73
55022;BME280;68328;35.990;-86.756;2024-03-17T02:27:34;98634.85;;;21.03;29.39
55022;BME280;68328;35.990;-86.756;2024-03-17T02:30:00;98633.43;;;21.29;28.86
55022;BME280;68328;35.990;-86.756;2024-03-17T02:32:25;98633.91;;;20.77;27.85
55022;BME280;68328;35.990;-86.756;2024-03-17T02:34:49;98633.73;;;21.00;28.08
55022;BME280;68328;35.990;-86.756;2024-03-17T02:37:17;98636.21;;;21.33;28.58
55022;BME280;68328;35.990;-86.756;2024-03-17T02:39:41;98637.82;;;21.20;28.31
55022;BME280;68328;35.990;-86.756;2024-03-17T02:42:07;98642.16;;;21.23;27.47
55022;BME280;68328;35.990;-86.756;2024-03-17T02:44:31;98643.56;;;20.96;27.44
55022;BME280;68328;35.990;-86.756;2024-03-17T02:46:56;98645.02;;;21.43;27.57
55022;BME280;68328;35.990;-86.756;2024-03-17T02:49:21;98638.21;;;21.11;27.89
55022;BME280;68328;35.990;-86.756;2024-03-17T02:51:47;98630.41;;;21.09;28.11
55022;BME280;68328;35.990;-86.756;2024-03-17T02:54:12;98634.16;;;21.37;28.69
55022;BME280;68328;35.990;-86.756;2024-03-17T02:56:37;98634.69;;;21.31;27.46
55022;BME280;68328;35.990;-86.756;2024-03-17T02:59:02;98635.04;;;21.26;28.27
55022;BME280;68328;35.990;-86.756;2024-03-17T03:01:28;98637.45;;;20.77;28.54
55022;BME280;68328;35.990;-86.756;2024-03-17T03:03:53;98645.52;;;21.00;28.56
55022;BME280;68328;35.990;-86.756;2024-03-17T03:06:18;98647.36;;;21.23;28.28
55022;BME280;68328;35.990;-86.756;2024-03-17T03:08:43;98649.53;;;21.18;28.18
55022;BME280;68328;35.990;-86.756;2024-03-17T03:11:11;98653.56;;;21.10;28.39
55022;BME280;68328;35.990;-86.756;2024-03-17T03:13:34;98656.45;;;21.08;28.27
55022;BME280;68328;35.990;-86.756;2024-03-17T03:15:59;98657.00;;;21.05;28.64
55022;BME280;68328;35.990;-86.756;2024-03-17T03:18:26;98658.37;;;21.05;27.81
55022;BME280;68328;35.990;-86.756;2024-03-17T03:20:51;98654.14;;;21.14;28.27
55022;BME280;68328;35.990;-86.756;2024-03-17T03:23:15;98651.24;;;21.11;28.13
55022;BME280;68328;35.990;-86.756;2024-03-17T03:25:42;98653.87;;;21.00;28.17
55022;BME280;68328;35.990;-86.756;2024-03-17T03:28:06;98651.13;;;21.02;28.36
55022;BME280;68328;35.990;-86.756;2024-03-17T03:30:35;98647.26;;;21.08;28.28
55022;BME280;68328;35.990;-86.756;2024-03-17T03:32:59;98643.31;;;21.10;27.90
55022;BME280;68328;35.990;-86.756;2024-03-17T03:35:21;98634.45;;;21.09;27.93
55022;BME280;68328;35.990;-86.756;2024-03-17T03:37:47;98633.09;;;20.99;28.19
55022;BME280;68328;35.990;-86.756;2024-03-17T03:40:12;98643.07;;;20.95;28.35
55022;BME280;68328;35.990;-86.756;2024-03-17T03:42:38;98646.74;;;20.83;28.26
55022;BME280;68328;35.990;-86.756;2024-03-17T03:45:04;98643.84;;;20.81;28.68
55022;BME280;68328;35.990;-86.756;2024-03-17T03:47:31;98639.86;;;20.85;29.18
55022;BME280;68328;35.990;-86.756;2024-03-17T03:49:54;98635.74;;;20.90;27.35
55022;BME280;68328;35.990;-86.756;2024-03-17T03:52:19;98637.36;;;21.15;28.08
55022;BME280;68328;35.990;-86.756;2024-03-17T03:54:44;98634.62;;;20.92;28.42
55022;BME280;68328;35.990;-86.756;2024-03-17T03:57:09;98632.21;;;20.87;27.51
55022;BME280;68328;35.990;-86.756;2024-03-17T03:59:37;98627.48;;;20.87;27.84
55022;BME280;68328;35.990;-86.756;2024-03-17T04:02:00;98634.72;;;20.85;28.81
55022;BME280;68328;35.990;-86.756;2024-03-17T04:04:25;98636.97;;;21.06;28.23
55022;BME280;68328;35.990;-86.756;2024-03-17T04:06:51;98636.39;;;20.82;28.65
55022;BME280;68328;35.990;-86.756;2024-03-17T04:09:16;98640.38;;;20.74;28.86
55022;BME280;68328;35.990;-86.756;2024-03-17T04:11:41;98647.21;;;20.74;28.41
55022;BME280;68328;35.990;-86.756;2024-03-17T04:14:07;98641.21;;;20.76;28.13
55022;BME280;68328;35.990;-86.756;2024-03-17T04:16:32;98637.52;;;20.71;28.66
55022;BME280;68328;35.990;-86.756;2024-03-17T04:18:57;98629.57;;;20.71;28.82
55022;BME280;68328;35.990;-86.756;2024-03-17T04:21:22;98624.80;;;20.72;29.17
55022;BME280;68328;35.990;-86.756;2024-03-17T04:23:48;98628.30;;;20.70;29.10
55022;BME280;68328;35.990;-86.756;2024-03-17T04:26:14;98633.26;;;20.89;28.95
55022;BME280;68328;35.990;-86.756;2024-03-17T04:28:40;98634.81;;;20.90;29.05
55022;BME280;68328;35.990;-86.756;2024-03-17T04:31:04;98627.86;;;20.92;28.97
55022;BME280;68328;35.990;-86.756;2024-03-17T04:33:29;98629.07;;;20.93;29.13
55022;BME280;68328;35.990;-86.756;2024-03-17T04:35:54;98632.63;;;20.66;28.91
55022;BME280;68328;35.990;-86.756;2024-03-17T04:38:20;98628.09;;;20.96;28.83
55022;BME280;68328;35.990;-86.756;2024-03-17T04:40:45;98622.66;;;20.68;29.43
55022;BME280;68328;35.990;-86.756;2024-03-17T04:43:10;98622.08;;;20.68;29.14
55022;BME280;68328;35.990;-86.756;2024-03-17T04:45:35;98623.78;;;20.72;28.97
55022;BME280;68328;35.990;-86.756;2024-03-17T04:48:00;98622.92;;;20.68;28.55
55022;BME280;68328;35.990;-86.756;2024-03-17T04:50:26;98621.53;;;20.64;28.48
55022;BME280;68328;35.990;-86.756;2024-03-17T04:52:51;98619.55;;;20.62;28.65
55022;BME280;68328;35.990;-86.756;2024-03-17T04:55:16;98624.27;;;20.59;28.60
55022;BME280;68328;35.990;-86.756;2024-03-17T04:57:41;98626.42;;;20.53;28.07
55022;BME280;68328;35.990;-86.756;2024-03-17T05:00:08;98622.06;;;20.54;28.71
55022;BME280;68328;35.990;-86.756;2024-03-17T05:02:34;98625.63;;;20.58;28.71
55022;BME280;68328;35.990;-86.756;2024-03-17T05:04:57;98627.25;;;20.71;28.44
55022;BME280;68328;35.990;-86.756;2024-03-17T05:07:23;98625.55;;;20.73;28.89
55022;BME280;68328;35.990;-86.756;2024-03-17T05:09:48;98629.82;;;20.70;29.49
55022;BME280;68328;35.990;-86.756;2024-03-17T05:12:13;98628.01;;;20.73;29.30
55022;BME280;68328;35.990;-86.756;2024-03-17T05:14:39;98625.79;;;20.48;29.38
55022;BME280;68328;35.990;-86.756;2024-03-17T05:17:04;98630.81;;;20.74;29.90
55022;BME280;68328;35.990;-86.756;2024-03-17T05:19:29;98637.96;;;20.51;30.12
55022;BME280;68328;35.990;-86.756;2024-03-17T05:21:56;98640.45;;;20.54;29.34
55022;BME280;68328;35.990;-86.756;2024-03-17T05:24:19;98642.41;;;20.85;29.64
55022;BME280;68328;35.990;-86.756;2024-03-17T05:26:45;98644.25;;;20.57;29.82
55022;BME280;68328;35.990;-86.756;2024-03-17T05:29:10;98635.52;;;20.55;29.80
55022;BME280;68328;35.990;-86.756;2024-03-17T05:31:35;98642.66;;;20.54;29.91
55022;BME280;68328;35.990;-86.756;2024-03-17T05:34:03;98636.17;;;20.53;29.40
55022;BME280;68328;35.990;-86.756;2024-03-17T05:36:26;98631.69;;;20.78;29.39
55022;BME280;68328;35.990;-86.756;2024-03-17T05:38:51;98632.34;;;20.52;29.65
55022;BME280;68328;35.990;-86.756;2024-03-17T05:41:16;98630.93;;;20.69;29.67
55022;BME280;68328;35.990;-86.756;2024-03-17T05:43:42;98632.84;;;20.41;29.97
55022;BME280;68328;35.990;-86.756;2024-03-17T05:46:09;98631.25;;;20.41;30.21
55022;BME280;68328;35.990;-86.756;2024-03-17T05:48:34;98625.08;;;20.38;30.20
55022;BME280;68328;35.990;-86.756;2024-03-17T05:50:57;98625.42;;;20.60;30.45
55022;BME280;68328;35.990;-86.756;2024-03-17T05:53:23;98619.22;;;20.29;30.53
55022;BME280;68328;35.990;-86.756;2024-03-17T05:55:48;98610.32;;;20.52;30.60
55022;BME280;68328;35.990;-86.756;2024-03-17T05:58:14;98613.62;;;20.71;30.81
55022;BME280;68328;35.990;-86.756;2024-03-17T06:00:40;98609.42;;;20.22;30.54
55022;BME280;68328;35.990;-86.756;2024-03-17T06:03:04;98615.89;;;20.43;30.74
55022;BME280;68328;35.990;-86.756;2024-03-17T06:05:33;98615.02;;;20.43;30.91
55022;BME280;68328;35.990;-86.756;2024-03-17T06:07:54;98617.39;;;20.35;29.88
55022;BME280;68328;35.990;-86.756;2024-03-17T06:10:20;98621.88;;;20.12;30.00
55022;BME280;68328;35.990;-86.756;2024-03-17T06:12:45;98624.00;;;20.23;29.55
55022;BME280;68328;35.990;-86.756;2024-03-17T06:15:11;98621.34;;;20.23;29.66
55022;BME280;68328;35.990;-86.756;2024-03-17T06:17:35;98623.35;;;20.40;29.08
55022;BME280;68328;35.990;-86.756;2024-03-17T06:20:01;98614.13;;;20.14;28.90
55022;BME280;68328;35.990;-86.756;2024-03-17T06:22:27;98610.37;;;20.33;28.87
55022;BME280;68328;35.990;-86.756;2024-03-17T06:24:51;98606.71;;;20.09;29.27
55022;BME280;68328;35.990;-86.756;2024-03-17T06:27:17;98608.66;;;20.05;29.82
55022;BME280;68328;35.990;-86.756;2024-03-17T06:29:42;98605.13;;;19.73;29.63
55022;BME280;68328;35.990;-86.756;2024-03-17T06:32:07;98606.74;;;19.93;28.98
55022;BME280;68328;35.990;-86.756;2024-03-17T06:34:33;98601.76;;;19.90;29.49
55022;BME280;68328;35.990;-86.756;2024-03-17T06:36:58;98601.35;;;20.13;29.89
55022;BME280;68328;35.990;-86.756;2024-03-17T06:39:23;98599.09;;;20.13;30.06
55022;BME280;68328;35.990;-86.756;2024-03-17T06:41:48;98592.74;;;20.06;29.88
55022;BME280;68328;35.990;-86.756;2024-03-17T06:44:13;98587.46;;;19.81;30.00
55022;BME280;68328;35.990;-86.756;2024-03-17T06:46:39;98580.88;;;20.08;30.53
55022;BME280;68328;35.990;-86.756;2024-03-17T06:49:04;98576.49;;;19.91;30.88
55022;BME280;68328;35.990;-86.756;2024-03-17T06:51:29;98577.89;;;20.04;29.47
55022;BME280;68328;35.990;-86.756;2024-03-17T06:53:55;98577.46;;;19.92;29.73
55022;BME280;68328;35.990;-86.756;2024-03-17T06:56:20;98574.45;;;19.58;29.82
55022;BME280;68328;35.990;-86.756;2024-03-17T06:58:45;98568.03;;;19.77;29.45
55022;BME280;68328;35.990;-86.756;2024-03-17T07:01:10;98566.11;;;19.82;29.66
55022;BME280;68328;35.990;-86.756;2024-03-17T07:03:36;98563.55;;;19.85;29.84
55022;BME280;68328;35.990;-86.756;2024-03-17T07:06:02;98575.73;;;19.75;30.00
55022;BME280;68328;35.990;-86.756;2024-03-17T07:08:27;98570.68;;;19.72;29.57
55022;BME280;68328;35.990;-86.756;2024-03-17T07:10:58;98568.54;;;19.75;30.18
55022;BME280;68328;35.990;-86.756;2024-03-17T07:13:18;98567.59;;;19.87;30.38
55022;BME280;68328;35.990;-86.756;2024-03-17T07:15:47;98568.05;;;19.90;30.17
55022;BME280;68328;35.990;-86.756;2024-03-17T07:18:07;98567.95;;;19.89;30.01
55022;BME280;68328;35.990;-86.756;2024-03-17T07:20:33;98569.02;;;19.89;29.89
55022;BME280;68328;35.990;-86.756;2024-03-17T07:23:00;98574.04;;;19.94;29.67
55022;BME280;68328;35.990;-86.756;2024-03-17T07:25:23;98571.61;;;19.94;29.83
55022;BME280;68328;35.990;-86.756;2024-03-17T07:27:48;98574.29;;;20.02;30.10
55022;BME280;68328;35.990;-86.756;2024-03-17T07:30:14;98570.57;;;19.89;30.32
55022;BME280;68328;35.990;-86.756;2024-03-17T07:32:39;98570.66;;;19.95;30.66
55022;BME280;68328;35.990;-86.756;2024-03-17T07:35:05;98562.78;;;20.26;30.89
55022;BME280;68328;35.990;-86.756;2024-03-17T07:37:30;98558.07;;;20.07;31.16
55022;BME280;68328;35.990;-86.756;2024-03-17T07:39:55;98560.82;;;20.12;30.91
55022;BME280;68328;35.990;-86.756;2024-03-17T07:42:20;98562.88;;;20.21;30.66
55022;BME280;68328;35.990;-86.756;2024-03-17T07:44:45;98563.05;;;20.24;30.85
55022;BME280;68328;35.990;-86.756;2024-03-17T07:47:11;98560.42;;;20.26;30.76
55022;BME280;68328;35.990;-86.756;2024-03-17T07:49:36;98559.95;;;20.53;30.96
55022;BME280;68328;35.990;-86.756;2024-03-17T07:52:01;98557.46;;;20.27;30.57
55022;BME280;68328;35.990;-86.756;2024-03-17T07:54:27;98557.33;;;20.27;30.30
55022;BME280;68328;35.990;-86.756;2024-03-17T07:56:52;98548.28;;;20.30;30.64
55022;BME280;68328;35.990;-86.756;2024-03-17T07:59:17;98547.13;;;20.31;30.34
55022;BME280;68328;35.990;-86.756;2024-03-17T08:01:42;98539.87;;;20.13;30.18
55022;BME280;68328;35.990;-86.756;2024-03-17T08:04:08;98535.69;;;20.42;30.71
55022;BME280;68328;35.990;-86.756;2024-03-17T08:06:33;98523.98;;;20.52;30.62
55022;BME280;68328;35.990;-86.756;2024-03-17T08:08:59;98521.04;;;20.53;30.56
55022;BME280;68328;35.990;-86.756;2024-03-17T08:11:24;98514.61;;;20.54;30.50
55022;BME280;68328;35.990;-86.756;2024-03-17T08:13:49;98510.16;;;20.55;30.30
55022;BME280;68328;35.990;-86.756;2024-03-17T08:16:14;98497.23;;;20.86;30.68
55022;BME280;68328;35.990;-86.756;2024-03-17T08:18:39;98493.47;;;20.65;30.83
55022;BME280;68328;35.990;-86.756;2024-03-17T08:21:05;98490.72;;;20.65;30.83
55022;BME280;68328;35.990;-86.756;2024-03-17T08:23:31;98489.35;;;20.37;30.90
55022;BME280;68328;35.990;-86.756;2024-03-17T08:25:56;98494.38;;;20.29;30.60
55022;BME280;68328;35.990;-86.756;2024-03-17T08:28:20;98487.48;;;20.56;30.90
55022;BME280;68328;35.990;-86.756;2024-03-17T08:30:52;98480.26;;;20.54;31.12
55022;BME280;68328;35.990;-86.756;2024-03-17T08:33:11;98483.82;;;20.21;30.14
55022;BME280;68328;35.990;-86.756;2024-03-17T08:35:37;98481.70;;;20.38;30.47
55022;BME280;68328;35.990;-86.756;2024-03-17T08:38:03;98481.13;;;20.12;30.68
55022;BME280;68328;35.990;-86.756;2024-03-17T08:40:27;98481.44;;;20.35;30.62
55022;BME280;68328;35.990;-86.756;2024-03-17T08:42:52;98478.74;;;20.42;30.89
55022;BME280;68328;35.990;-86.756;2024-03-17T08:45:17;98472.98;;;20.72;30.88
55022;BME280;68328;35.990;-86.756;2024-03-17T08:47:43;98475.38;;;20.25;30.84
55022;BME280;68328;35.990;-86.756;2024-03-17T08:50:09;98471.45;;;20.45;29.52
55022;BME280;68328;35.990;-86.756;2024-03-17T08:52:33;98465.72;;;20.10;30.19
55022;BME280;68328;35.990;-86.756;2024-03-17T08:54:58;98466.94;;;20.50;30.56
55022;BME280;68328;35.990;-86.756;2024-03-17T08:57:24;98464.30;;;20.29;30.54
55022;BME280;68328;35.990;-86.756;2024-03-17T08:59:50;98465.87;;;20.28;30.14
55022;BME280;68328;35.990;-86.756;2024-03-17T09:02:14;98465.79;;;20.35;30.00
55022;BME280;68328;35.990;-86.756;2024-03-17T09:04:41;98467.68;;;20.24;29.82
55022;BME280;68328;35.990;-86.756;2024-03-17T09:07:05;98465.22;;;20.58;29.95
55022;BME280;68328;35.990;-86.756;2024-03-17T09:09:30;98467.26;;;20.41;29.41
55022;BME280;68328;35.990;-86.756;2024-03-17T09:11:55;98468.75;;;20.44;29.23
55022;BME280;68328;35.990;-86.756;2024-03-17T09:14:20;98467.78;;;20.48;29.30
55022;BME280;68328;35.990;-86.756;2024-03-17T09:16:47;98470.36;;;20.70;29.77
55022;BME280;68328;35.990;-86.756;2024-03-17T09:19:11;98472.24;;;20.48;29.44
55022;BME280;68328;35.990;-86.756;2024-03-17T09:21:36;98477.56;;;20.73;29.66
55022;BME280;68328;35.990;-86.756;2024-03-17T09:24:02;98480.87;;;20.73;29.42
55022;BME280;68328;35.990;-86.756;2024-03-17T09:26:29;98484.12;;;20.51;29.43
55022;BME280;68328;35.990;-86.756;2024-03-17T09:28:52;98489.79;;;20.56;29.13
55022;BME280;68328;35.990;-86.756;2024-03-17T09:31:18;98495.91;;;20.89;29.21
55022;BME280;68328;35.990;-86.756;2024-03-17T09:33:43;98499.44;;;20.88;29.69
55022;BME280;68328;35.990;-86.756;2024-03-17T09:36:09;98501.46;;;21.02;29.70
55022;BME280;68328;35.990;-86.756;2024-03-17T09:38:34;98508.23;;;20.47;30.27
55022;BME280;68328;35.990;-86.756;2024-03-17T09:40:59;98514.87;;;20.98;30.04
55022;BME280;68328;35.990;-86.756;2024-03-17T09:43:24;98515.16;;;20.62;29.93
55022;BME280;68328;35.990;-86.756;2024-03-17T09:45:49;98516.24;;;20.65;30.05
55022;BME280;68328;35.990;-86.756;2024-03-17T09:48:17;98515.00;;;20.66;29.78
55022;BME280;68328;35.990;-86.756;2024-03-17T09:50:40;98509.77;;;20.53;29.54
55022;BME280;68328;35.990;-86.756;2024-03-17T09:53:07;98511.33;;;20.62;29.32
55022;BME280;68328;35.990;-86.756;2024-03-17T09:55:31;98510.10;;;20.33;29.68
55022;BME280;68328;35.990;-86.756;2024-03-17T09:57:56;98505.36;;;20.43;29.61
55022;BME280;68328;35.990;-86.756;2024-03-17T10:00:21;98503.55;;;20.50;29.71
55022;BME280;68328;35.990;-86.756;2024-03-17T10:02:47;98508.39;;;20.62;29.64
55022;BME280;68328;35.990;-86.756;2024-03-17T10:05:19;98512.79;;;20.88;30.05
55022;BME280;68328;35.990;-86.756;2024-03-17T10:07:39;98526.04;;;20.62;30.39
55022;BME280;68328;35.990;-86.756;2024-03-17T10:10:12;98533.32;;;20.52;30.60
55022;BME280;68328;35.990;-86.756;2024-03-17T10:12:28;98535.40;;;20.59;30.79
55022;BME280;68328;35.990;-86.756;2024-03-17T10:14:58;98542.99;;;20.58;31.12
55022;BME280;68328;35.990;-86.756;2024-03-17T10:19:43;98536.90;;;20.72;31.31
55022;BME280;68328;35.990;-86.756;2024-03-17T10:22:12;98531.20;;;20.66;31.21
55022;BME280;68328;35.990;-86.756;2024-03-17T10:24:34;98526.85;;;20.54;30.76
55022;BME280;68328;35.990;-86.756;2024-03-17T10:27:01;98516.96;;;20.46;31.13
55022;BME280;68328;35.990;-86.756;2024-03-17T10:29:26;98519.30;;;20.14;31.95
55022;BME280;68328;35.990;-86.756;2024-03-17T10:31:52;98514.01;;;20.18;31.19
55022;BME280;68328;35.990;-86.756;2024-03-17T10:34:16;98519.80;;;19.81;31.08
55022;BME280;68328;35.990;-86.756;2024-03-17T10:36:41;98526.28;;;20.20;31.28
55022;BME280;68328;35.990;-86.756;2024-03-17T10:41:31;98529.83;;;19.86;32.02
55022;BME280;68328;35.990;-86.756;2024-03-17T10:43:56;98527.49;;;19.97;31.56
55022;BME280;68328;35.990;-86.756;2024-03-17T10:46:24;98530.41;;;19.85;31.62
55022;BME280;68328;35.990;-86.756;2024-03-17T10:48:47;98531.53;;;19.61;31.95
55022;BME280;68328;35.990;-86.756;2024-03-17T10:51:17;98535.22;;;19.60;31.90
55022;BME280;68328;35.990;-86.756;2024-03-17T10:53:37;98540.15;;;19.52;32.44
55022;BME280;68328;35.990;-86.756;2024-03-17T10:56:05;98544.27;;;19.24;32.43
55022;BME280;68328;35.990;-86.756;2024-03-17T10:58:34;98547.02;;;19.44;32.63
55022;BME280;68328;35.990;-86.756;2024-03-17T11:00:56;98540.87;;;19.38;32.67
55022;BME280;68328;35.990;-86.756;2024-03-17T11:03:19;98550.01;;;19.48;32.87
55022;BME280;68328;35.990;-86.756;2024-03-17T11:05:44;98555.90;;;19.11;32.68
55022;BME280;68328;35.990;-86.756;2024-03-17T11:08:15;98560.08;;;19.46;32.60
55022;BME280;68328;35.990;-86.756;2024-03-17T11:10:35;98562.89;;;18.99;32.84
55022;BME280;68328;35.990;-86.756;2024-03-17T11:13:01;98568.30;;;18.98;32.50
55022;BME280;68328;35.990;-86.756;2024-03-17T11:17:51;98583.58;;;19.32;32.34
55022;BME280;68328;35.990;-86.756;2024-03-17T11:20:17;98586.88;;;19.61;32.56
55022;BME280;68328;35.990;-86.756;2024-03-17T11:22:44;98602.32;;;19.14;32.63
55022;BME280;68328;35.990;-86.756;2024-03-17T11:27:40;98594.64;;;19.74;32.81
55022;BME280;68328;35.990;-86.756;2024-03-17T11:29:56;98605.90;;;19.02;32.56
55022;BME280;68328;35.990;-86.756;2024-03-17T11:32:27;98621.19;;;19.39;33.05
55022;BME280;68328;35.990;-86.756;2024-03-17T11:34:47;98638.57;;;19.45;33.01
55022;BME280;68328;35.990;-86.756;2024-03-17T11:39:48;98659.21;;;19.60;32.46
55022;BME280;68328;35.990;-86.756;2024-03-17T11:42:06;98669.12;;;19.58;32.38
55022;BME280;68328;35.990;-86.756;2024-03-17T11:44:28;98676.52;;;19.55;32.44
55022;BME280;68328;35.990;-86.756;2024-03-17T11:46:56;98676.47;;;19.84;32.28
55022;BME280;68328;35.990;-86.756;2024-03-17T11:49:21;98685.19;;;19.50;31.89
55022;BME280;68328;35.990;-86.756;2024-03-17T11:51:45;98696.44;;;19.49;32.06
55022;BME280;68328;35.990;-86.756;2024-03-17T11:54:14;98706.69;;;19.31;32.41
55022;BME280;68328;35.990;-86.756;2024-03-17T11:56:35;98712.12;;;19.65;32.62
55022;BME280;68328;35.990;-86.756;2024-03-17T11:59:06;98709.94;;;19.68;32.25
55022;BME280;68328;35.990;-86.756;2024-03-17T12:01:29;98709.52;;;19.50;32.20
55022;BME280;68328;35.990;-86.756;2024-03-17T12:03:51;98718.81;;;19.56;32.20
55022;BME280;68328;35.990;-86.756;2024-03-17T12:06:16;98724.20;;;19.85;32.38
55022;BME280;68328;35.990;-86.756;2024-03-17T12:08:41;98729.72;;;19.83;32.20
55022;BME280;68328;35.990;-86.756;2024-03-17T12:11:16;98727.32;;;19.87;32.12
55022;BME280;68328;35.990;-86.756;2024-03-17T12:13:33;98729.19;;;19.83;32.23
55022;BME280;68328;35.990;-86.756;2024-03-17T12:18:23;98739.62;;;19.84;31.66
55022;BME280;68328;35.990;-86.756;2024-03-17T12:20:49;98742.81;;;19.51;31.66
55022;BME280;68328;35.990;-86.756;2024-03-17T12:23:14;98748.42;;;19.38;31.71
55022;BME280;68328;35.990;-86.756;2024-03-17T12:25:38;98740.97;;;19.81;31.38
55022;BME280;68328;35.990;-86.756;2024-03-17T12:28:14;98744.01;;;19.33;31.45
55022;BME280;68328;35.990;-86.756;2024-03-17T12:30:30;98748.12;;;19.38;31.51
55022;BME280;68328;35.990;-86.756;2024-03-17T12:32:54;98750.73;;;19.64;31.32
55022;BME280;68328;35.990;-86.756;2024-03-17T12:35:20;98744.27;;;19.38;30.81
55022;BME280;68328;35.990;-86.756;2024-03-17T12:37:45;98746.55;;;19.19;29.62
55022;BME280;68328;35.990;-86.756;2024-03-17T12:40:18;98752.65;;;19.11;29.55
55022;BME280;68328;35.990;-86.756;2024-03-17T12:42:37;98754.28;;;19.33;28.60
55022;BME280;68328;35.990;-86.756;2024-03-17T12:45:01;98758.05;;;19.21;26.00